createdAt,value
2019-01-30T00:00:05.112Z,32.8
2019-01-30T00:00:55.347Z,32.8
2019-01-30T00:01:45.507Z,32.8
2019-01-30T00:02:35.842Z,32.8
2019-01-30T00:03:25.800Z,32.8
2019-01-30T00:04:16.612Z,32.8
2019-01-30T00:05:05.370Z,32.8
2019-01-30T00:05:55.428Z,32.7
2019-01-30T00:06:45.187Z,32.7
2019-01-30T00:07:36.089Z,32.7
2019-01-30T00:08:25.300Z,32.7
2019-01-30T00:09:16.202Z,32.7
2019-01-30T00:10:06.005Z,32.6
2019-01-30T00:10:55.790Z,32.6
2019-01-30T00:11:46.102Z,32.6
2019-01-30T00:12:36.435Z,32.6
2019-01-30T00:13:25.935Z,32.6
2019-01-30T00:14:16.629Z,32.6
2019-01-30T00:15:06.051Z,32.6
2019-01-30T00:16:02.499Z,32.6
2019-01-30T00:16:46.423Z,32.6
2019-01-30T00:17:36.492Z,32.6
2019-01-30T00:18:27.132Z,32.6
2019-01-30T00:19:16.049Z,32.5
2019-01-30T00:20:06.778Z,32.5
2019-01-30T00:20:56.729Z,32.5
2019-01-30T00:21:46.539Z,32.5
2019-01-30T00:22:37.112Z,32.4
2019-01-30T00:23:26.978Z,32.4
2019-01-30T00:24:17.228Z,32.4
2019-01-30T00:25:07.013Z,32.4
2019-01-30T00:25:57.641Z,32.4
2019-01-30T00:26:46.863Z,32.4
2019-01-30T00:27:37.480Z,32.4
2019-01-30T00:28:27.807Z,32.4
2019-01-30T00:29:17.663Z,32.4
2019-01-30T00:30:09.858Z,32.4
2019-01-30T00:30:58.019Z,32.4
2019-01-30T00:31:47.461Z,32.4
2019-01-30T00:32:37.267Z,32.4
2019-01-30T00:33:27.576Z,32.3
2019-01-30T00:34:17.987Z,32.3
2019-01-30T00:35:07.420Z,32.3
2019-01-30T00:35:57.839Z,32.3
2019-01-30T00:36:46.733Z,32.3
2019-01-30T00:37:37.870Z,32.3
2019-01-30T00:38:27.945Z,32.3
2019-01-30T00:39:17.705Z,32.3
2019-01-30T00:40:08.699Z,32.3
2019-01-30T00:40:57.916Z,32.3
2019-01-30T00:41:47.058Z,32.2
2019-01-30T00:42:38.208Z,32.2
2019-01-30T00:43:28.564Z,32.2
2019-01-30T00:44:18.065Z,32.2
2019-01-30T00:45:08.391Z,32.1
2019-01-30T00:45:58.465Z,32.1
2019-01-30T00:46:48.555Z,32.2
2019-01-30T00:47:40.828Z,32.1
2019-01-30T00:48:28.631Z,32.1
2019-01-30T00:49:18.190Z,32.1
2019-01-30T00:50:08.445Z,32.1
2019-01-30T00:50:58.792Z,32.1
2019-01-30T00:51:48.578Z,32.1
2019-01-30T00:52:39.205Z,32
2019-01-30T00:53:29.250Z,32.1
2019-01-30T00:54:18.851Z,32.1
2019-01-30T00:55:09.079Z,32
2019-01-30T00:55:59.538Z,32
2019-01-30T00:56:49.192Z,32
2019-01-30T00:57:39.814Z,32
2019-01-30T00:58:29.319Z,32
2019-01-30T00:59:19.644Z,31.9
2019-01-30T01:00:18.832Z,31.9
2019-01-30T01:01:01.742Z,31.9
2019-01-30T01:01:49.819Z,31.9
2019-01-30T01:02:39.334Z,31.9
2019-01-30T01:03:29.414Z,31.9
2019-01-30T01:04:20.004Z,31.9
2019-01-30T01:05:09.774Z,31.9
2019-01-30T01:05:59.838Z,31.9
2019-01-30T01:06:50.177Z,31.9
2019-01-30T01:07:40.244Z,31.9
2019-01-30T01:08:29.999Z,31.8
2019-01-30T01:09:20.646Z,31.9
2019-01-30T01:10:09.606Z,31.9
2019-01-30T01:10:59.892Z,31.8
2019-01-30T01:11:50.003Z,31.8
2019-01-30T01:12:40.293Z,31.8
2019-01-30T01:13:29.316Z,31.8
2019-01-30T01:14:20.239Z,31.8
2019-01-30T01:15:10.791Z,31.8
2019-01-30T01:16:00.641Z,31.8
2019-01-30T01:16:50.846Z,31.8
2019-01-30T01:17:40.061Z,31.8
2019-01-30T01:18:30.220Z,31.7
2019-01-30T01:19:21.076Z,31.8
2019-01-30T01:20:10.819Z,31.7
2019-01-30T01:21:00.894Z,31.7
2019-01-30T01:21:50.911Z,31.7
2019-01-30T01:22:40.789Z,31.7
2019-01-30T01:23:31.713Z,31.7
2019-01-30T01:24:21.104Z,31.6
2019-01-30T01:25:10.644Z,31.7
2019-01-30T01:26:01.481Z,31.6
2019-01-30T01:26:51.542Z,31.6
2019-01-30T01:27:41.972Z,31.6
2019-01-30T01:28:31.645Z,31.6
2019-01-30T01:29:21.976Z,31.6
2019-01-30T01:30:11.587Z,31.6
2019-01-30T01:31:01.005Z,31.6
2019-01-30T01:31:51.972Z,31.6
2019-01-30T01:32:41.405Z,31.6
2019-01-30T01:33:31.765Z,31.6
2019-01-30T01:34:22.050Z,31.5
2019-01-30T01:35:11.015Z,31.5
2019-01-30T01:36:01.622Z,31.5
2019-01-30T01:36:51.959Z,31.5
2019-01-30T01:37:42.292Z,31.5
2019-01-30T01:38:32.332Z,31.5
2019-01-30T01:39:22.126Z,31.5
2019-01-30T01:40:11.944Z,31.4
2019-01-30T01:41:02.240Z,31.4
2019-01-30T01:41:52.864Z,31.4
2019-01-30T01:42:42.912Z,31.4
2019-01-30T01:43:31.589Z,31.4
2019-01-30T01:44:22.779Z,31.4
2019-01-30T01:45:12.542Z,31.4
2019-01-30T01:46:02.900Z,31.4
2019-01-30T01:46:52.647Z,31.4
2019-01-30T01:47:42.704Z,31.4
2019-01-30T01:48:33.329Z,31.4
2019-01-30T01:49:23.416Z,31.3
2019-01-30T01:50:13.169Z,31.4
2019-01-30T01:51:03.205Z,31.3
2019-01-30T01:51:53.536Z,31.3
2019-01-30T01:52:42.792Z,31.3
2019-01-30T01:53:32.563Z,31.3
2019-01-30T01:54:23.176Z,31.3
2019-01-30T01:55:13.275Z,31.3
2019-01-30T01:56:03.256Z,31.3
2019-01-30T01:56:53.615Z,31.3
2019-01-30T01:57:43.685Z,31.3
2019-01-30T01:58:33.165Z,31.3
2019-01-30T01:59:23.220Z,31.3
2019-01-30T02:00:13.030Z,31.3
2019-01-30T02:01:04.185Z,31.3
2019-01-30T02:01:53.943Z,31.4
2019-01-30T02:02:44.018Z,31.4
2019-01-30T02:03:34.350Z,31.6
2019-01-30T02:04:24.130Z,31.8
2019-01-30T02:05:14.209Z,31.9
2019-01-30T02:06:04.075Z,32.1
2019-01-30T02:06:54.300Z,32.2
2019-01-30T02:07:43.818Z,32.4
2019-01-30T02:08:34.427Z,32.5
2019-01-30T02:09:24.789Z,32.7
2019-01-30T02:10:13.417Z,32.8
2019-01-30T02:11:04.697Z,32.9
2019-01-30T02:11:54.620Z,33.1
2019-01-30T02:12:44.727Z,33.2
2019-01-30T02:13:34.782Z,33.3
2019-01-30T02:14:24.944Z,33.4
2019-01-30T02:15:14.600Z,33.5
2019-01-30T02:16:04.391Z,33.6
2019-01-30T02:16:54.719Z,33.8
2019-01-30T02:17:44.782Z,33.8
2019-01-30T02:18:35.391Z,33.9
2019-01-30T02:19:25.259Z,34
2019-01-30T02:20:14.494Z,34.1
2019-01-30T02:21:04.747Z,34.1
2019-01-30T02:21:55.331Z,34.2
2019-01-30T02:22:45.126Z,34.3
2019-01-30T02:23:35.000Z,34.4
2019-01-30T02:24:25.601Z,34.4
2019-01-30T02:25:15.574Z,34.6
2019-01-30T02:26:05.344Z,34.6
2019-01-30T02:26:54.862Z,34.7
2019-01-30T02:27:46.073Z,34.8
2019-01-30T02:28:35.788Z,34.8
2019-01-30T02:29:25.458Z,34.9
2019-01-30T02:30:15.718Z,34.9
2019-01-30T02:31:05.507Z,35
2019-01-30T02:31:56.085Z,35.1
2019-01-30T02:32:45.825Z,35.1
2019-01-30T02:33:36.440Z,35.1
2019-01-30T02:34:25.965Z,35.2
2019-01-30T02:35:15.731Z,35.2
2019-01-30T02:36:05.061Z,35.3
2019-01-30T02:36:56.678Z,35.3
2019-01-30T02:37:46.452Z,35.3
2019-01-30T02:38:36.328Z,35.3
2019-01-30T02:39:26.310Z,35.4
2019-01-30T02:40:16.795Z,35.4
2019-01-30T02:41:06.772Z,35.4
2019-01-30T02:41:56.058Z,35.4
2019-01-30T02:42:46.283Z,35.6
2019-01-30T02:43:36.633Z,35.6
2019-01-30T02:44:26.617Z,35.6
2019-01-30T02:45:17.389Z,35.6
2019-01-30T02:46:07.093Z,35.7
2019-01-30T02:46:56.810Z,35.7
2019-01-30T02:47:46.123Z,35.8
2019-01-30T02:48:36.510Z,35.8
2019-01-30T02:49:26.153Z,35.8
2019-01-30T02:50:16.781Z,35.8
2019-01-30T02:51:07.382Z,35.9
2019-01-30T02:51:57.431Z,35.9
2019-01-30T02:52:46.145Z,35.9
2019-01-30T02:53:36.869Z,36
2019-01-30T02:54:27.084Z,36
2019-01-30T02:55:17.404Z,36.1
2019-01-30T02:56:07.496Z,36.1
2019-01-30T02:56:57.477Z,36.1
2019-01-30T02:57:47.882Z,36.2
2019-01-30T02:58:38.162Z,36.2
2019-01-30T02:59:27.730Z,36.3
2019-01-30T03:00:18.129Z,36.3
2019-01-30T03:01:07.237Z,36.3
2019-01-30T03:01:57.789Z,36.3
2019-01-30T03:02:48.559Z,36.3
2019-01-30T03:03:38.235Z,36.3
2019-01-30T03:04:27.718Z,36.3
2019-01-30T03:05:18.468Z,36.4
2019-01-30T03:08:29.685Z,36.3
2019-01-30T03:09:19.111Z,36.4
2019-01-30T03:10:09.769Z,36.4
2019-01-30T03:10:59.251Z,36.5
2019-01-30T03:11:49.856Z,36.5
2019-01-30T03:12:39.924Z,36.5
2019-01-30T03:13:29.766Z,36.6
2019-01-30T03:14:20.076Z,36.6
2019-01-30T03:15:09.816Z,36.6
2019-01-30T03:16:00.140Z,36.6
2019-01-30T03:16:50.549Z,36.6
2019-01-30T03:17:40.558Z,36.6
2019-01-30T03:18:30.593Z,36.6
2019-01-30T03:19:19.818Z,36.7
2019-01-30T03:20:10.743Z,36.7
2019-01-30T03:21:00.743Z,36.7
2019-01-30T03:21:50.815Z,36.8
2019-01-30T03:22:40.591Z,36.8
2019-01-30T03:23:30.100Z,36.8
2019-01-30T03:24:20.318Z,36.8
2019-01-30T03:25:11.030Z,36.8
2019-01-30T03:26:01.205Z,36.9
2019-01-30T03:26:50.710Z,36.9
2019-01-30T03:27:40.671Z,36.9
2019-01-30T03:28:30.770Z,36.9
2019-01-30T03:29:20.781Z,37
2019-01-30T03:30:11.216Z,37
2019-01-30T03:31:21.044Z,37
2019-01-30T03:31:51.595Z,37
2019-01-30T03:32:41.216Z,37
2019-01-30T03:33:31.513Z,37.1
2019-01-30T03:34:21.430Z,37.1
2019-01-30T03:35:11.279Z,37
2019-01-30T03:36:01.582Z,37.1
2019-01-30T03:36:51.842Z,37
2019-01-30T03:37:41.104Z,37
2019-01-30T03:38:31.431Z,37
2019-01-30T03:39:21.480Z,37
2019-01-30T03:40:10.955Z,37
2019-01-30T03:41:01.574Z,37
2019-01-30T03:41:51.647Z,36.9
2019-01-30T03:42:41.781Z,36.9
2019-01-30T03:43:32.037Z,36.9
2019-01-30T03:44:21.954Z,36.9
2019-01-30T03:45:11.891Z,36.9
2019-01-30T03:46:02.181Z,36.9
2019-01-30T03:46:51.481Z,36.9
2019-01-30T03:47:42.314Z,36.9
2019-01-30T03:48:32.063Z,36.9
2019-01-30T03:49:22.709Z,36.9
2019-01-30T03:50:12.731Z,36.9
2019-01-30T03:51:02.257Z,36.9
2019-01-30T03:51:52.986Z,36.9
2019-01-30T03:52:42.929Z,36.9
2019-01-30T03:53:32.449Z,36.9
2019-01-30T03:54:22.761Z,36.9
2019-01-30T03:55:12.832Z,36.9
2019-01-30T03:56:01.753Z,36.9
2019-01-30T03:56:52.926Z,36.9
2019-01-30T03:57:43.303Z,36.9
2019-01-30T03:58:33.076Z,36.9
2019-01-30T03:59:22.555Z,36.9
2019-01-30T04:00:13.155Z,36.9
2019-01-30T04:01:03.385Z,36.9
2019-01-30T04:01:53.302Z,36.9
2019-01-30T04:02:43.583Z,36.9
2019-01-30T04:03:33.385Z,36.9
2019-01-30T04:04:23.728Z,36.9
2019-01-30T04:05:13.799Z,36.8
2019-01-30T04:06:03.300Z,36.9
2019-01-30T04:06:53.485Z,36.9
2019-01-30T04:07:43.683Z,36.8
2019-01-30T04:08:33.159Z,36.9
2019-01-30T04:09:23.804Z,36.9
2019-01-30T04:10:13.630Z,36.9
2019-01-30T04:11:03.687Z,36.9
2019-01-30T04:11:54.226Z,36.9
2019-01-30T04:12:44.288Z,36.9
2019-01-30T04:13:33.934Z,36.9
2019-01-30T04:14:23.850Z,36.9
2019-01-30T04:15:13.979Z,36.9
2019-01-30T04:16:04.510Z,36.9
2019-01-30T04:16:54.585Z,36.9
2019-01-30T04:17:44.419Z,36.9
2019-01-30T04:18:34.399Z,36.9
2019-01-30T04:19:24.203Z,36.9
2019-01-30T04:20:14.289Z,36.9
2019-01-30T04:21:04.573Z,36.9
2019-01-30T04:21:54.936Z,36.9
2019-01-30T04:22:45.006Z,36.9
2019-01-30T04:23:35.166Z,36.8
2019-01-30T04:24:25.151Z,36.9
2019-01-30T04:26:05.093Z,36.8
2019-01-30T04:26:55.294Z,36.8
2019-01-30T04:27:44.264Z,36.8
2019-01-30T04:28:35.392Z,36.8
2019-01-30T04:29:25.597Z,36.8
2019-01-30T04:30:15.506Z,36.8
2019-01-30T04:31:05.537Z,36.8
2019-01-30T04:31:55.088Z,36.8
2019-01-30T04:32:44.830Z,36.8
2019-01-30T04:33:35.440Z,36.8
2019-01-30T04:34:25.927Z,36.8
2019-01-30T04:35:15.854Z,36.8
2019-01-30T04:36:05.380Z,36.8
2019-01-30T04:36:55.370Z,36.8
2019-01-30T04:37:46.034Z,36.8
2019-01-30T04:38:35.530Z,36.8
2019-01-30T04:39:26.248Z,36.8
2019-01-30T04:40:15.630Z,36.7
2019-01-30T04:41:05.732Z,36.8
2019-01-30T04:41:56.015Z,36.7
2019-01-30T04:42:46.124Z,36.7
2019-01-30T04:43:36.431Z,36.7
2019-01-30T04:44:26.199Z,36.7
2019-01-30T04:45:16.240Z,36.7
2019-01-30T04:46:06.587Z,36.6
2019-01-30T04:46:56.065Z,36.7
2019-01-30T04:47:46.242Z,36.7
2019-01-30T04:48:36.501Z,36.6
2019-01-30T04:49:26.815Z,36.6
2019-01-30T04:50:17.044Z,36.6
2019-01-30T04:51:06.665Z,36.6
2019-01-30T04:51:57.006Z,36.6
2019-01-30T04:52:46.231Z,36.6
2019-01-30T04:53:36.530Z,36.6
2019-01-30T04:54:26.876Z,36.6
2019-01-30T04:55:16.648Z,36.6
2019-01-30T04:56:06.918Z,36.6
2019-01-30T04:56:56.747Z,36.6
2019-01-30T04:57:47.117Z,36.6
2019-01-30T04:58:36.902Z,36.6
2019-01-30T04:59:27.226Z,36.5
2019-01-30T05:00:17.310Z,36.6
2019-01-30T05:01:07.339Z,36.6
2019-01-30T05:01:57.412Z,36.5
2019-01-30T05:02:47.741Z,36.5
2019-01-30T05:03:36.964Z,36.5
2019-01-30T05:04:27.016Z,36.5
2019-01-30T05:05:17.426Z,36.5
2019-01-30T05:06:07.459Z,36.5
2019-01-30T05:06:58.076Z,36.4
2019-01-30T05:07:47.542Z,36.4
2019-01-30T05:08:37.576Z,36.4
2019-01-30T05:09:28.046Z,36.4
2019-01-30T05:10:17.961Z,36.4
2019-01-30T05:11:08.028Z,36.4
2019-01-30T05:11:57.803Z,36.4
2019-01-30T05:12:48.217Z,36.4
2019-01-30T05:13:38.273Z,36.4
2019-01-30T05:14:27.695Z,36.4
2019-01-30T05:15:18.053Z,36.4
2019-01-30T05:16:08.240Z,36.4
2019-01-30T05:16:57.848Z,36.4
2019-01-30T05:17:48.188Z,36.4
2019-01-30T05:18:38.552Z,36.4
2019-01-30T05:19:28.703Z,36.3
2019-01-30T05:20:18.166Z,36.3
2019-01-30T05:21:08.828Z,36.3
2019-01-30T05:21:58.471Z,36.3
2019-01-30T05:22:48.884Z,36.3
2019-01-30T05:23:39.310Z,36.3
2019-01-30T05:24:29.007Z,36.4
2019-01-30T05:25:19.017Z,36.4
2019-01-30T05:26:08.508Z,36.4
2019-01-30T05:26:59.090Z,36.4
2019-01-30T05:27:49.267Z,36.4
2019-01-30T05:28:39.247Z,36.4
2019-01-30T05:29:28.993Z,36.4
2019-01-30T05:30:19.049Z,36.4
2019-01-30T05:31:09.477Z,36.4
2019-01-30T05:32:06.811Z,36.3
2019-01-30T05:32:49.460Z,36.3
2019-01-30T05:33:39.310Z,36.3
2019-01-30T05:34:29.887Z,36.3
2019-01-30T05:35:19.766Z,36.3
2019-01-30T05:36:09.697Z,36.2
2019-01-30T05:36:59.759Z,36.2
2019-01-30T05:37:53.254Z,36.2
2019-01-30T05:38:40.240Z,36.1
2019-01-30T05:39:29.991Z,36.1
2019-01-30T05:40:20.291Z,36.1
2019-01-30T05:41:10.081Z,36.1
2019-01-30T05:41:59.886Z,36.1
2019-01-30T05:42:50.174Z,36
2019-01-30T05:43:43.576Z,36
2019-01-30T05:44:30.740Z,35.9
2019-01-30T05:45:20.776Z,35.9
2019-01-30T05:46:10.381Z,35.9
2019-01-30T05:47:00.746Z,35.8
2019-01-30T05:47:50.673Z,35.8
2019-01-30T05:48:40.610Z,35.8
2019-01-30T05:49:33.596Z,35.8
2019-01-30T05:50:20.708Z,35.7
2019-01-30T05:51:10.514Z,35.7
2019-01-30T05:52:01.071Z,35.6
2019-01-30T05:52:50.901Z,35.6
2019-01-30T05:53:41.153Z,35.6
2019-01-30T05:54:30.986Z,35.6
2019-01-30T05:55:20.747Z,35.6
2019-01-30T05:56:11.088Z,35.5
2019-01-30T05:57:01.456Z,35.4
2019-01-30T05:57:51.257Z,35.4
2019-01-30T05:58:40.858Z,35.4
2019-01-30T05:59:31.093Z,35.4
2019-01-30T06:00:21.080Z,35.3
2019-01-30T06:01:11.699Z,35.3
2019-01-30T06:02:15.606Z,35.3
2019-01-30T06:02:51.500Z,35.3
2019-01-30T06:03:41.877Z,35.3
2019-01-30T06:04:31.970Z,35.2
2019-01-30T06:06:28.907Z,35.1
2019-01-30T06:07:18.650Z,35.1
2019-01-30T06:08:09.042Z,35.1
2019-01-30T06:08:59.315Z,35.1
2019-01-30T06:09:49.361Z,35
2019-01-30T06:10:39.452Z,35
2019-01-30T06:11:29.774Z,34.9
2019-01-30T06:12:19.534Z,34.9
2019-01-30T06:13:09.880Z,34.8
2019-01-30T06:13:59.654Z,34.6
2019-01-30T06:14:49.550Z,34.6
2019-01-30T06:15:40.337Z,34.4
2019-01-30T06:16:30.367Z,34.3
2019-01-30T06:17:19.618Z,34.2
2019-01-30T06:18:09.970Z,34.1
2019-01-30T06:18:59.981Z,34
2019-01-30T06:19:49.501Z,33.9
2019-01-30T06:20:40.459Z,33.8
2019-01-30T06:21:30.166Z,33.8
2019-01-30T06:22:19.961Z,33.7
2019-01-30T06:23:10.362Z,33.6
2019-01-30T06:24:00.719Z,33.5
2019-01-30T06:24:51.045Z,33.4
2019-01-30T06:25:40.831Z,33.4
2019-01-30T06:26:30.794Z,33.3
2019-01-30T06:27:21.179Z,33.3
2019-01-30T06:28:11.216Z,33.2
2019-01-30T06:29:00.039Z,33.2
2019-01-30T06:29:50.736Z,33.1
2019-01-30T06:30:40.800Z,33.1
2019-01-30T06:31:32.918Z,33
2019-01-30T06:32:27.293Z,33
2019-01-30T06:33:10.697Z,33
2019-01-30T06:34:01.593Z,32.9
2019-01-30T06:34:51.665Z,32.9
2019-01-30T06:35:41.468Z,32.8
2019-01-30T06:36:30.665Z,32.8
2019-01-30T06:37:23.911Z,32.8
2019-01-30T06:38:10.845Z,32.8
2019-01-30T06:39:00.722Z,32.7
2019-01-30T06:39:51.021Z,32.6
2019-01-30T06:40:41.770Z,32.6
2019-01-30T06:41:31.252Z,32.6
2019-01-30T06:42:22.182Z,32.6
2019-01-30T06:43:11.430Z,32.6
2019-01-30T06:44:01.725Z,32.5
2019-01-30T06:44:52.098Z,32.5
2019-01-30T06:45:42.360Z,32.4
2019-01-30T06:46:32.192Z,32.4
2019-01-30T06:47:21.823Z,32.4
2019-01-30T06:48:12.078Z,32.3
2019-01-30T06:49:02.688Z,32.3
2019-01-30T06:49:52.692Z,32.3
2019-01-30T06:50:42.484Z,32.1
2019-01-30T06:51:31.939Z,32.1
2019-01-30T06:52:22.364Z,31.9
2019-01-30T06:53:12.389Z,31.8
2019-01-30T06:54:02.729Z,31.8
2019-01-30T06:54:52.197Z,31.6
2019-01-30T06:55:42.509Z,31.6
2019-01-30T06:56:32.614Z,31.4
2019-01-30T06:57:21.807Z,31.4
2019-01-30T06:58:12.180Z,31.3
2019-01-30T06:59:02.484Z,31.3
2019-01-30T06:59:52.528Z,31.1
2019-01-30T07:00:42.846Z,31
2019-01-30T07:01:32.379Z,30.8
2019-01-30T07:02:33.681Z,30.6
2019-01-30T07:03:13.312Z,30.3
2019-01-30T07:04:03.664Z,30.1
2019-01-30T07:06:29.691Z,29.4
2019-01-30T07:07:18.861Z,29.3
2019-01-30T07:08:09.344Z,29
2019-01-30T07:08:59.531Z,28.8
2019-01-30T07:09:49.598Z,28.6
2019-01-30T07:10:39.921Z,28.4
2019-01-30T07:11:29.777Z,28.3
2019-01-30T07:12:19.758Z,28.1
2019-01-30T07:13:09.852Z,27.9
2019-01-30T07:14:00.263Z,27.8
2019-01-30T07:14:49.383Z,27.6
2019-01-30T07:15:39.447Z,27.5
2019-01-30T07:16:29.760Z,27.3
2019-01-30T07:17:20.098Z,27.2
2019-01-30T07:18:09.617Z,27.1
2019-01-30T07:19:00.330Z,26.9
2019-01-30T07:19:50.002Z,26.8
2019-01-30T07:20:39.583Z,26.7
2019-01-30T07:21:30.158Z,26.6
2019-01-30T07:22:20.265Z,26.4
2019-01-30T07:23:10.251Z,26.3
2019-01-30T07:24:00.618Z,26.3
2019-01-30T07:24:49.861Z,26.1
2019-01-30T07:25:41.602Z,26
2019-01-30T07:26:30.448Z,25.9
2019-01-30T07:27:20.233Z,25.8
2019-01-30T07:28:10.583Z,25.8
2019-01-30T07:29:00.716Z,25.7
2019-01-30T07:29:50.953Z,25.6
2019-01-30T07:30:40.296Z,25.4
2019-01-30T07:31:31.143Z,25.4
2019-01-30T07:32:21.122Z,25.3
2019-01-30T07:33:10.915Z,25.3
2019-01-30T07:34:00.943Z,25.1
2019-01-30T07:34:50.545Z,25.1
2019-01-30T07:35:41.092Z,25
2019-01-30T07:36:31.728Z,24.9
2019-01-30T07:37:21.478Z,24.9
2019-01-30T07:38:10.705Z,24.8
2019-01-30T07:39:01.310Z,24.8
2019-01-30T07:39:51.685Z,24.7
2019-01-30T07:40:41.485Z,24.6
2019-01-30T07:41:31.485Z,24.6
2019-01-30T07:42:21.815Z,24.6
2019-01-30T07:43:11.594Z,24.5
2019-01-30T07:44:01.951Z,24.4
2019-01-30T07:44:56.018Z,24.4
2019-01-30T07:45:42.177Z,24.3
2019-01-30T07:46:31.825Z,24.3
2019-01-30T07:47:21.620Z,24.3
2019-01-30T07:48:12.189Z,24.3
2019-01-30T07:49:01.709Z,24.3
2019-01-30T07:49:51.779Z,24.2
2019-01-30T07:50:42.467Z,24.1
2019-01-30T07:51:31.736Z,24.1
2019-01-30T07:52:22.227Z,24.1
2019-01-30T07:53:12.824Z,24.1
2019-01-30T07:54:02.744Z,24
2019-01-30T07:54:52.116Z,24
2019-01-30T07:55:42.706Z,23.9
2019-01-30T07:56:34.278Z,23.9
2019-01-30T07:57:23.107Z,23.9
2019-01-30T07:58:12.910Z,23.9
2019-01-30T07:59:02.710Z,23.9
2019-01-30T07:59:53.391Z,23.8
2019-01-30T08:00:42.786Z,23.8
2019-01-30T08:01:33.509Z,23.8
2019-01-30T08:02:25.691Z,23.8
2019-01-30T08:03:13.299Z,23.7
2019-01-30T08:04:03.274Z,23.7
2019-01-30T08:04:52.241Z,23.7
2019-01-30T08:05:43.124Z,23.7
2019-01-30T08:06:33.193Z,23.6
2019-01-30T08:07:22.989Z,23.6
2019-01-30T08:08:13.311Z,23.6
2019-01-30T08:09:03.913Z,23.6
2019-01-30T08:09:52.943Z,23.6
2019-01-30T08:10:43.541Z,23.6
2019-01-30T08:11:35.683Z,23.6
2019-01-30T08:12:23.866Z,23.6
2019-01-30T08:13:13.408Z,23.5
2019-01-30T08:14:07.029Z,23.5
2019-01-30T08:14:53.764Z,23.5
2019-01-30T08:15:44.127Z,23.5
2019-01-30T08:16:34.185Z,23.4
2019-01-30T08:17:26.640Z,23.4
2019-01-30T08:18:14.032Z,23.4
2019-01-30T08:19:04.050Z,23.4
2019-01-30T08:19:56.243Z,23.4
2019-01-30T08:20:44.277Z,23.4
2019-01-30T08:21:34.614Z,23.4
2019-01-30T08:22:24.816Z,23.4
2019-01-30T08:23:16.476Z,23.4
2019-01-30T08:24:07.508Z,23.4
2019-01-30T08:24:56.391Z,23.3
2019-01-30T08:25:46.551Z,23.3
2019-01-30T08:26:37.327Z,23.3
2019-01-30T08:27:26.810Z,23.3
2019-01-30T08:28:19.422Z,23.3
2019-01-30T08:29:07.149Z,23.3
2019-01-30T08:29:56.887Z,23.3
2019-01-30T08:30:47.156Z,23.3
2019-01-30T08:31:36.815Z,23.3
2019-01-30T08:32:29.400Z,23.3
2019-01-30T08:33:15.812Z,23.3
2019-01-30T08:34:05.359Z,23.3
2019-01-30T08:34:55.697Z,23.3
2019-01-30T08:35:45.308Z,23.3
2019-01-30T08:36:35.589Z,23.3
2019-01-30T08:37:25.649Z,23.2
2019-01-30T08:38:15.411Z,23.2
2019-01-30T08:39:05.694Z,23.2
2019-01-30T08:39:55.529Z,23.2
2019-01-30T08:40:46.082Z,23.2
2019-01-30T08:41:36.243Z,23.2
2019-01-30T08:42:25.906Z,23.2
2019-01-30T08:43:15.406Z,23.2
2019-01-30T08:44:05.598Z,23.2
2019-01-30T08:44:56.236Z,23.1
2019-01-30T08:45:45.864Z,23.1
2019-01-30T08:46:36.026Z,23.1
2019-01-30T08:47:26.336Z,23.1
2019-01-30T08:48:15.342Z,23.1
2019-01-30T08:49:06.363Z,23.1
2019-01-30T08:49:55.596Z,23.1
2019-01-30T08:50:46.205Z,23.1
2019-01-30T08:51:36.523Z,23.1
2019-01-30T08:52:26.418Z,23.1
2019-01-30T08:53:16.463Z,23.1
2019-01-30T08:54:06.343Z,23.1
2019-01-30T08:54:56.240Z,23.1
2019-01-30T08:55:47.105Z,23.1
2019-01-30T08:56:57.230Z,23.1
2019-01-30T08:57:26.950Z,23.1
2019-01-30T08:58:16.745Z,23.1
2019-01-30T08:59:10.193Z,23.1
2019-01-30T08:59:56.185Z,23.1
2019-01-30T09:00:46.623Z,23.1
2019-01-30T09:01:37.220Z,23.1
2019-01-30T09:02:27.035Z,23.1
2019-01-30T09:03:20.587Z,23.1
2019-01-30T09:04:07.767Z,23.1
2019-01-30T09:04:56.902Z,23.1
2019-01-30T09:05:47.335Z,23.1
2019-01-30T09:06:37.574Z,23
2019-01-30T09:07:27.369Z,23.1
2019-01-30T09:08:17.809Z,23.3
2019-01-30T09:09:07.744Z,33.4
2019-01-30T09:09:57.805Z,38.9
2019-01-30T09:10:46.740Z,40.9
2019-01-30T09:11:37.615Z,41.6
2019-01-30T09:12:27.457Z,41.8
2019-01-30T09:13:17.616Z,41.4
2019-01-30T09:14:07.511Z,41
2019-01-30T09:14:58.236Z,40.5
2019-01-30T09:15:47.611Z,39.9
2019-01-30T09:16:38.242Z,39.4
2019-01-30T09:17:28.029Z,38.9
2019-01-30T09:18:18.664Z,38.4
2019-01-30T09:19:08.530Z,37.9
2019-01-30T09:19:58.836Z,37.5
2019-01-30T09:20:48.562Z,37.1
2019-01-30T09:21:38.039Z,36.8
2019-01-30T09:22:28.456Z,36.4
2019-01-30T09:23:18.481Z,36.1
2019-01-30T09:24:09.041Z,35.8
2019-01-30T09:24:58.933Z,35.5
2019-01-30T09:25:48.611Z,35.3
2019-01-30T09:26:38.138Z,34.9
2019-01-30T09:27:29.871Z,34.7
2019-01-30T09:28:19.038Z,34.4
2019-01-30T09:29:08.831Z,34.2
2019-01-30T09:29:58.323Z,34
2019-01-30T09:30:49.177Z,33.8
2019-01-30T09:31:39.331Z,33.6
2019-01-30T09:32:29.037Z,33.4
2019-01-30T09:33:30.645Z,33.2
2019-01-30T09:34:09.440Z,32.9
2019-01-30T09:34:58.720Z,32.8
2019-01-30T09:35:48.995Z,36.2
2019-01-30T09:36:39.667Z,40.1
2019-01-30T09:37:32.513Z,41.6
2019-01-30T09:38:19.253Z,44.5
2019-01-30T09:39:09.725Z,46.3
2019-01-30T09:39:59.890Z,46.4
2019-01-30T09:40:49.632Z,44.4
2019-01-30T09:41:40.042Z,42.1
2019-01-30T09:42:30.132Z,40.7
2019-01-30T09:43:20.008Z,39.7
2019-01-30T09:44:09.758Z,43.4
2019-01-30T09:45:00.274Z,44.6
2019-01-30T09:45:49.585Z,45.8
2019-01-30T09:46:40.710Z,47.1
2019-01-30T09:47:30.418Z,47.9
2019-01-30T09:48:19.775Z,48.1
2019-01-30T09:49:10.794Z,48.2
2019-01-30T09:50:00.720Z,48.3
2019-01-30T09:50:49.939Z,48.5
2019-01-30T09:51:40.980Z,48.6
2019-01-30T09:52:32.399Z,48.8
2019-01-30T09:53:20.909Z,49
2019-01-30T09:54:10.676Z,49.2
2019-01-30T09:55:00.964Z,49.4
2019-01-30T09:55:51.201Z,49.6
2019-01-30T09:56:40.900Z,49.8
2019-01-30T09:57:31.314Z,49.8
2019-01-30T09:58:20.831Z,50
2019-01-30T09:59:10.869Z,50.1
2019-01-30T10:00:01.219Z,50.3
2019-01-30T10:00:51.288Z,50.4
2019-01-30T10:01:41.064Z,50.5
2019-01-30T10:02:31.486Z,50.6
2019-01-30T10:03:21.449Z,50.6
2019-01-30T10:04:10.933Z,50.8
2019-01-30T10:05:01.347Z,50.8
2019-01-30T10:07:30.027Z,50.9
2019-01-30T10:08:18.738Z,51
2019-01-30T10:09:09.618Z,50.9
2019-01-30T10:09:58.838Z,50.9
2019-01-30T10:10:49.168Z,50.9
2019-01-30T10:11:38.590Z,50.9
2019-01-30T10:12:28.705Z,51
2019-01-30T10:13:19.617Z,51
2019-01-30T10:14:09.213Z,51
2019-01-30T10:14:59.725Z,51
2019-01-30T10:15:50.112Z,51
2019-01-30T10:16:39.600Z,51.1
2019-01-30T10:17:32.515Z,51.1
2019-01-30T10:18:20.330Z,51
2019-01-30T10:19:09.772Z,50.9
2019-01-30T10:19:59.647Z,50.7
2019-01-30T10:20:50.217Z,50.6
2019-01-30T10:21:40.200Z,50.6
2019-01-30T10:22:30.065Z,50.6
2019-01-30T10:23:20.048Z,50.6
2019-01-30T10:24:09.996Z,50.7
2019-01-30T10:24:59.887Z,50.8
2019-01-30T10:25:50.510Z,50.9
2019-01-30T10:26:40.281Z,51.2
2019-01-30T10:27:30.404Z,51.4
2019-01-30T10:28:22.443Z,51.7
2019-01-30T10:30:03.828Z,52.2
2019-01-30T10:31:40.910Z,52.5
2019-01-30T10:32:30.710Z,52.6
2019-01-30T10:33:21.164Z,52.8
2019-01-30T10:34:11.058Z,52.8
2019-01-30T10:35:01.030Z,52.9
2019-01-30T10:35:50.646Z,52.9
2019-01-30T10:36:40.952Z,53
2019-01-30T10:37:31.013Z,53.1
2019-01-30T10:38:21.476Z,53
2019-01-30T10:39:11.187Z,52.9
2019-01-30T10:40:01.415Z,52.8
2019-01-30T10:40:51.337Z,52.7
2019-01-30T10:41:41.857Z,52.6
2019-01-30T10:42:31.095Z,52.5
2019-01-30T10:43:21.699Z,52.5
2019-01-30T10:44:11.499Z,52.5
2019-01-30T10:45:01.801Z,52.5
2019-01-30T10:45:51.326Z,52.5
2019-01-30T10:46:41.173Z,52.4
2019-01-30T10:48:22.042Z,52.3
2019-01-30T10:49:12.445Z,52.2
2019-01-30T10:50:02.492Z,52.1
2019-01-30T10:50:52.041Z,52
2019-01-30T10:52:32.379Z,51.9
2019-01-30T10:53:22.429Z,51.8
2019-01-30T10:54:12.452Z,51.8
2019-01-30T10:55:02.801Z,51.8
2019-01-30T10:55:52.023Z,51.7
2019-01-30T10:56:42.911Z,51.6
2019-01-30T10:57:32.406Z,51.6
2019-01-30T10:58:22.255Z,51.6
2019-01-30T10:59:12.916Z,51.5
2019-01-30T11:00:02.773Z,51.5
2019-01-30T11:00:53.121Z,51.5
2019-01-30T11:01:43.305Z,51.4
2019-01-30T11:02:32.471Z,51.4
2019-01-30T11:03:22.676Z,51.4
2019-01-30T11:04:13.433Z,51.4
2019-01-30T11:05:02.936Z,51.3
2019-01-30T11:05:53.556Z,51.3
2019-01-30T11:06:43.368Z,51.2
2019-01-30T11:07:33.384Z,51.1
2019-01-30T11:08:23.543Z,51.1
2019-01-30T11:09:12.738Z,50.9
2019-01-30T11:10:03.030Z,50.9
2019-01-30T11:10:56.177Z,50.8
2019-01-30T11:11:43.943Z,50.6
2019-01-30T11:12:32.929Z,50.6
2019-01-30T11:13:23.520Z,50.5
2019-01-30T11:14:13.567Z,50.4
2019-01-30T11:15:06.232Z,50.3
2019-01-30T11:15:52.680Z,50.3
2019-01-30T11:16:43.604Z,50.2
2019-01-30T11:17:34.068Z,50.2
2019-01-30T11:18:23.887Z,50.1
2019-01-30T11:19:13.634Z,50.1